Repülésmeteorológia

METAR


Utolsó módosítás időpontja: 2021-06-23 10:50:00
961
SAHU41 HASM 231100
METAR LHSM 231045Z AUTO VRB03KT 8000 NCD 30/19 Q1016 NOSIG

TAF


Utolsó módosítás időpontja: 2021-06-23 08:10:00
955
FCHU99 LHSM 230800 RRA
TAF LHSM 230815Z 2309/2318 35007KT CAVOK BECMG 2309/2312 VRB02KT